sensor_id;sensor_type;location;lat;lon;timestamp;pressure;altitude;pressure_sealevel;temperature;humidity
11806;BME280;5960;42.602;23.482;2022-08-21T00:01:32;92912.53;;;20.24;86.29
11806;BME280;5960;42.602;23.482;2022-08-21T00:04:04;92909.59;;;20.31;86.25
11806;BME280;5960;42.602;23.482;2022-08-21T00:06:30;92909.88;;;20.40;85.96
11806;BME280;5960;42.602;23.482;2022-08-21T00:08:58;92895.44;;;20.41;85.50
11806;BME280;5960;42.602;23.482;2022-08-21T00:11:24;92900.53;;;20.37;85.27
11806;BME280;5960;42.602;23.482;2022-08-21T00:13:54;92895.69;;;20.34;85.00
11806;BME280;5960;42.602;23.482;2022-08-21T00:16:21;92892.75;;;20.41;85.19
11806;BME280;5960;42.602;23.482;2022-08-21T00:18:48;92895.44;;;20.41;84.76
11806;BME280;5960;42.602;23.482;2022-08-21T00:21:16;92893.84;;;20.45;85.26
11806;BME280;5960;42.602;23.482;2022-08-21T00:23:43;92893.84;;;20.45;85.30
11806;BME280;5960;42.602;23.482;2022-08-21T00:26:10;92897.84;;;20.42;85.48
11806;BME280;5960;42.602;23.482;2022-08-21T00:28:37;92895.16;;;20.42;85.37
11806;BME280;5960;42.602;23.482;2022-08-21T00:31:05;92894.91;;;20.44;84.99
11806;BME280;5960;42.602;23.482;2022-08-21T00:33:32;92894.09;;;20.43;85.28
11806;BME280;5960;42.602;23.482;2022-08-21T00:35:59;92892.47;;;20.32;84.79
11806;BME280;5960;42.602;23.482;2022-08-21T00:38:26;92899.44;;;20.33;84.85
11806;BME280;5960;42.602;23.482;2022-08-21T00:40:55;92900.22;;;20.34;84.54
11806;BME280;5960;42.602;23.482;2022-08-21T00:43:24;92892.66;;;20.10;84.94
11806;BME280;5960;42.602;23.482;2022-08-21T00:45:53;92895.03;;;20.01;85.42
11806;BME280;5960;42.602;23.482;2022-08-21T00:48:22;92899.31;;;20.02;85.98
11806;BME280;5960;42.602;23.482;2022-08-21T00:50:53;92911.91;;;20.07;86.26
11806;BME280;5960;42.602;23.482;2022-08-21T00:53:22;92901.19;;;20.07;86.77
11806;BME280;5960;42.602;23.482;2022-08-21T00:55:49;92893.19;;;20.12;86.63
11806;BME280;5960;42.602;23.482;2022-08-21T00:58:17;92887.34;;;20.15;86.80
11806;BME280;5960;42.602;23.482;2022-08-21T01:00:46;92895.09;;;20.17;86.58
11806;BME280;5960;42.602;23.482;2022-08-21T01:03:15;92886.78;;;20.13;86.61
11806;BME280;5960;42.602;23.482;2022-08-21T01:05:44;92890.03;;;20.20;85.79
11806;BME280;5960;42.602;23.482;2022-08-21T01:08:13;92888.13;;;20.15;85.33
11806;BME280;5960;42.602;23.482;2022-08-21T01:10:41;92885.44;;;20.15;85.04
11806;BME280;5960;42.602;23.482;2022-08-21T01:13:10;92883.03;;;20.09;85.28
11806;BME280;5960;42.602;23.482;2022-08-21T01:15:42;92888.91;;;20.06;85.29
11806;BME280;5960;42.602;23.482;2022-08-21T01:18:10;92883.56;;;20.01;86.07
11806;BME280;5960;42.602;23.482;2022-08-21T01:20:40;92876.06;;;20.08;86.58
11806;BME280;5960;42.602;23.482;2022-08-21T01:23:09;92874.25;;;20.13;86.10
11806;BME280;5960;42.602;23.482;2022-08-21T01:25:36;92878.50;;;20.09;86.29
11806;BME280;5960;42.602;23.482;2022-08-21T01:28:11;92877.66;;;19.98;86.58
11806;BME280;5960;42.602;23.482;2022-08-21T01:30:40;92878.97;;;19.96;87.20
11806;BME280;5960;42.602;23.482;2022-08-21T01:33:08;92874.69;;;19.90;86.46
11806;BME280;5960;42.602;23.482;2022-08-21T01:35:35;92880.97;;;19.73;86.39
11806;BME280;5960;42.602;23.482;2022-08-21T01:38:02;92876.91;;;19.60;86.85
11806;BME280;5960;42.602;23.482;2022-08-21T01:40:30;92876.66;;;19.62;87.26
11806;BME280;5960;42.602;23.482;2022-08-21T01:42:57;92875.09;;;19.66;87.09
11806;BME280;5960;42.602;23.482;2022-08-21T01:45:24;92882.78;;;19.57;87.02
11806;BME280;5960;42.602;23.482;2022-08-21T01:47:51;92885.16;;;19.53;87.47
11806;BME280;5960;42.602;23.482;2022-08-21T01:50:19;92889.97;;;19.57;87.57
11806;BME280;5960;42.602;23.482;2022-08-21T01:52:47;92892.31;;;19.43;87.53
11806;BME280;5960;42.602;23.482;2022-08-21T01:55:16;92897.31;;;19.34;88.19
11806;BME280;5960;42.602;23.482;2022-08-21T01:57:46;92896.53;;;19.33;88.02
11806;BME280;5960;42.602;23.482;2022-08-21T02:00:14;92891.44;;;19.32;87.53
11806;BME280;5960;42.602;23.482;2022-08-21T02:02:42;92897.28;;;19.29;88.18
11806;BME280;5960;42.602;23.482;2022-08-21T02:05:10;92890.00;;;19.19;87.79
11806;BME280;5960;42.602;23.482;2022-08-21T02:07:37;92894.00;;;19.16;87.69
11806;BME280;5960;42.602;23.482;2022-08-21T02:10:06;92893.81;;;19.28;87.12
11806;BME280;5960;42.602;23.482;2022-08-21T02:12:34;92890.84;;;19.24;87.38
11806;BME280;5960;42.602;23.482;2022-08-21T02:15:04;92896.19;;;19.24;87.40
11806;BME280;5960;42.602;23.482;2022-08-21T02:17:37;92895.94;;;19.26;87.45
11806;BME280;5960;42.602;23.482;2022-08-21T02:20:05;92893.28;;;19.26;87.53
11806;BME280;5960;42.602;23.482;2022-08-21T02:22:32;92896.72;;;19.27;87.09
11806;BME280;5960;42.602;23.482;2022-08-21T02:24:58;92896.72;;;19.27;87.36
11806;BME280;5960;42.602;23.482;2022-08-21T02:27:25;92901.53;;;19.24;86.43
11806;BME280;5960;42.602;23.482;2022-08-21T02:29:53;92898.25;;;19.12;86.84
11806;BME280;5960;42.602;23.482;2022-08-21T02:32:21;92907.03;;;19.13;87.06
11806;BME280;5960;42.602;23.482;2022-08-21T02:34:48;92904.72;;;19.21;87.75
11806;BME280;5960;42.602;23.482;2022-08-21T02:37:15;92908.81;;;19.34;87.18
11806;BME280;5960;42.602;23.482;2022-08-21T02:39:41;92907.50;;;19.37;87.14
11806;BME280;5960;42.602;23.482;2022-08-21T02:42:08;92903.44;;;19.29;86.90
11806;BME280;5960;42.602;23.482;2022-08-21T02:44:35;92902.13;;;19.32;86.95
11806;BME280;5960;42.602;23.482;2022-08-21T02:47:02;92903.72;;;19.33;87.20
11806;BME280;5960;42.602;23.482;2022-08-21T02:49:30;92904.00;;;19.31;87.83
11806;BME280;5960;42.602;23.482;2022-08-21T02:51:56;92910.22;;;19.42;87.97
11806;BME280;5960;42.602;23.482;2022-08-21T02:54:23;92908.09;;;19.49;88.22
11806;BME280;5960;42.602;23.482;2022-08-21T02:56:50;92907.59;;;19.52;88.08
11806;BME280;5960;42.602;23.482;2022-08-21T02:59:17;92914.31;;;19.60;87.20
11806;BME280;5960;42.602;23.482;2022-08-21T03:01:43;92914.63;;;19.64;86.23
11806;BME280;5960;42.602;23.482;2022-08-21T03:04:10;92914.56;;;19.59;85.83
11806;BME280;5960;42.602;23.482;2022-08-21T03:06:38;92919.19;;;19.68;85.79
11806;BME280;5960;42.602;23.482;2022-08-21T03:09:05;92907.38;;;19.64;85.36
11806;BME280;5960;42.602;23.482;2022-08-21T03:11:32;92904.47;;;19.71;86.79
11806;BME280;5960;42.602;23.482;2022-08-21T03:13:58;92895.41;;;19.67;86.66
11806;BME280;5960;42.602;23.482;2022-08-21T03:16:25;92897.88;;;19.79;86.18
11806;BME280;5960;42.602;23.482;2022-08-21T03:18:52;92902.34;;;19.73;86.12
11806;BME280;5960;42.602;23.482;2022-08-21T03:21:19;92903.41;;;19.67;86.14
11806;BME280;5960;42.602;23.482;2022-08-21T03:23:47;92909.00;;;19.65;86.55
11806;BME280;5960;42.602;23.482;2022-08-21T03:26:13;92914.63;;;19.64;86.12
11806;BME280;5960;42.602;23.482;2022-08-21T03:28:40;92906.09;;;19.67;85.71
11806;BME280;5960;42.602;23.482;2022-08-21T03:31:07;92913.03;;;19.68;86.08
11806;BME280;5960;42.602;23.482;2022-08-21T03:33:34;92916.00;;;19.72;85.54
11806;BME280;5960;42.602;23.482;2022-08-21T03:36:04;92918.38;;;19.68;85.24
11806;BME280;5960;42.602;23.482;2022-08-21T03:38:32;92916.19;;;19.60;85.48
11806;BME280;5960;42.602;23.482;2022-08-21T03:41:01;92923.09;;;19.55;86.09
11806;BME280;5960;42.602;23.482;2022-08-21T03:43:28;92923.69;;;19.63;85.82
11806;BME280;5960;42.602;23.482;2022-08-21T03:45:55;92915.91;;;19.61;85.78
11806;BME280;5960;42.602;23.482;2022-08-21T03:48:22;92913.78;;;19.63;85.00
11806;BME280;5960;42.602;23.482;2022-08-21T03:50:51;92912.72;;;19.64;85.76
11806;BME280;5960;42.602;23.482;2022-08-21T03:53:18;92912.22;;;19.67;85.60
11806;BME280;5960;42.602;23.482;2022-08-21T03:55:46;92910.63;;;19.66;85.62
11806;BME280;5960;42.602;23.482;2022-08-21T03:58:17;92916.22;;;19.70;86.43
11806;BME280;5960;42.602;23.482;2022-08-21T04:00:45;92917.59;;;19.73;85.88
11806;BME280;5960;42.602;23.482;2022-08-21T04:03:12;92913.31;;;19.72;86.41
11806;BME280;5960;42.602;23.482;2022-08-21T04:05:39;92918.44;;;19.78;86.77
11806;BME280;5960;42.602;23.482;2022-08-21T04:08:06;92905.59;;;19.80;85.25
11806;BME280;5960;42.602;23.482;2022-08-21T04:10:36;92914.97;;;19.78;84.82
11806;BME280;5960;42.602;23.482;2022-08-21T04:13:03;92904.72;;;19.64;85.00
11806;BME280;5960;42.602;23.482;2022-08-21T04:15:32;92911.34;;;19.57;86.41
11806;BME280;5960;42.602;23.482;2022-08-21T04:17:59;92919.13;;;19.63;86.95
11806;BME280;5960;42.602;23.482;2022-08-21T04:20:26;92923.72;;;19.73;85.89
11806;BME280;5960;42.602;23.482;2022-08-21T04:22:53;92914.09;;;19.67;85.55
11806;BME280;5960;42.602;23.482;2022-08-21T04:25:22;92918.38;;;19.73;85.59
11806;BME280;5960;42.602;23.482;2022-08-21T04:27:49;92912.81;;;19.75;85.29
11806;BME280;5960;42.602;23.482;2022-08-21T04:30:16;92901.06;;;19.76;85.04
11806;BME280;5960;42.602;23.482;2022-08-21T04:32:45;92909.63;;;19.83;84.98
11806;BME280;5960;42.602;23.482;2022-08-21T04:35:15;92908.28;;;19.80;84.68
11806;BME280;5960;42.602;23.482;2022-08-21T04:37:42;92906.66;;;19.79;83.88
11806;BME280;5960;42.602;23.482;2022-08-21T04:40:11;92908.75;;;19.67;84.39
11806;BME280;5960;42.602;23.482;2022-08-21T04:42:42;92911.41;;;19.62;85.08
11806;BME280;5960;42.602;23.482;2022-08-21T04:45:16;92905.03;;;19.68;84.91
11806;BME280;5960;42.602;23.482;2022-08-21T04:47:47;92914.94;;;19.73;85.52
11806;BME280;5960;42.602;23.482;2022-08-21T04:50:14;92907.50;;;19.80;85.87
11806;BME280;5960;42.602;23.482;2022-08-21T04:52:41;92910.50;;;19.89;85.21
11806;BME280;5960;42.602;23.482;2022-08-21T04:55:08;92906.53;;;20.07;84.86
11806;BME280;5960;42.602;23.482;2022-08-21T04:57:36;92903.38;;;20.15;84.48
11806;BME280;5960;42.602;23.482;2022-08-21T05:00:05;92899.38;;;20.23;83.32
11806;BME280;5960;42.602;23.482;2022-08-21T05:02:33;92901.53;;;20.26;83.88
11806;BME280;5960;42.602;23.482;2022-08-21T05:05:01;92903.72;;;20.39;84.36
11806;BME280;5960;42.602;23.482;2022-08-21T05:07:29;92899.47;;;20.54;84.50
11806;BME280;5960;42.602;23.482;2022-08-21T05:09:59;92890.69;;;20.69;84.31
11806;BME280;5960;42.602;23.482;2022-08-21T05:12:26;92896.34;;;20.83;84.28
11806;BME280;5960;42.602;23.482;2022-08-21T05:14:53;92891.00;;;21.03;83.48
11806;BME280;5960;42.602;23.482;2022-08-21T05:17:20;92901.97;;;21.23;82.83
11806;BME280;5960;42.602;23.482;2022-08-21T05:19:46;92901.69;;;21.45;82.15
11806;BME280;5960;42.602;23.482;2022-08-21T05:22:20;92898.97;;;21.71;81.70
11806;BME280;5960;42.602;23.482;2022-08-21T05:24:47;92898.38;;;21.94;80.44
11806;BME280;5960;42.602;23.482;2022-08-21T05:27:14;92897.22;;;22.21;79.78
11806;BME280;5960;42.602;23.482;2022-08-21T05:29:40;92900.59;;;22.43;78.12
11806;BME280;5960;42.602;23.482;2022-08-21T05:32:09;92904.34;;;22.52;75.72
11806;BME280;5960;42.602;23.482;2022-08-21T05:34:36;92888.94;;;22.68;76.50
11806;BME280;5960;42.602;23.482;2022-08-21T05:37:03;92903.34;;;22.82;75.76
11806;BME280;5960;42.602;23.482;2022-08-21T05:39:31;92904.81;;;22.99;73.80
11806;BME280;5960;42.602;23.482;2022-08-21T05:41:58;92909.66;;;22.97;73.60
11806;BME280;5960;42.602;23.482;2022-08-21T05:44:25;92901.69;;;22.87;73.32
11806;BME280;5960;42.602;23.482;2022-08-21T05:46:51;92896.41;;;22.71;74.09
11806;BME280;5960;42.602;23.482;2022-08-21T05:49:18;92892.75;;;22.57;75.15
11806;BME280;5960;42.602;23.482;2022-08-21T05:51:45;92890.34;;;22.55;76.12
11806;BME280;5960;42.602;23.482;2022-08-21T05:54:12;92897.25;;;22.66;75.83
11806;BME280;5960;42.602;23.482;2022-08-21T05:56:40;92898.50;;;22.79;75.94
11806;BME280;5960;42.602;23.482;2022-08-21T05:59:10;92896.78;;;22.94;75.78
11806;BME280;5960;42.602;23.482;2022-08-21T06:01:38;92892.41;;;23.08;75.13
11806;BME280;5960;42.602;23.482;2022-08-21T06:04:05;92895.47;;;23.31;74.39
11806;BME280;5960;42.602;23.482;2022-08-21T06:06:32;92901.94;;;23.59;72.99
11806;BME280;5960;42.602;23.482;2022-08-21T06:08:59;92888.09;;;23.71;71.59
11806;BME280;5960;42.602;23.482;2022-08-21T06:11:26;92897.13;;;23.56;71.49
11806;BME280;5960;42.602;23.482;2022-08-21T06:13:54;92890.31;;;23.35;72.57
11806;BME280;5960;42.602;23.482;2022-08-21T06:16:20;92883.78;;;23.11;73.61
11806;BME280;5960;42.602;23.482;2022-08-21T06:18:48;92883.78;;;23.11;73.91
11806;BME280;5960;42.602;23.482;2022-08-21T06:21:15;92892.84;;;23.21;74.47
11806;BME280;5960;42.602;23.482;2022-08-21T06:23:42;92894.81;;;23.44;74.49
11806;BME280;5960;42.602;23.482;2022-08-21T06:26:11;92892.91;;;23.74;74.32
11806;BME280;5960;42.602;23.482;2022-08-21T06:28:38;92892.88;;;24.04;73.41
11806;BME280;5960;42.602;23.482;2022-08-21T06:31:12;92885.38;;;24.25;71.87
11806;BME280;5960;42.602;23.482;2022-08-21T06:33:39;92888.59;;;24.27;70.48
11806;BME280;5960;42.602;23.482;2022-08-21T06:36:06;92896.25;;;24.58;70.15
11806;BME280;5960;42.602;23.482;2022-08-21T06:38:33;92883.69;;;24.73;68.45
11806;BME280;5960;42.602;23.482;2022-08-21T06:41:00;92896.06;;;24.74;67.88
11806;BME280;5960;42.602;23.482;2022-08-21T06:43:27;92896.81;;;24.55;67.99
11806;BME280;5960;42.602;23.482;2022-08-21T06:45:54;92898.00;;;24.68;68.06
11806;BME280;5960;42.602;23.482;2022-08-21T06:48:22;92899.88;;;24.73;67.50
11806;BME280;5960;42.602;23.482;2022-08-21T06:50:49;92903.06;;;24.75;68.26
11806;BME280;5960;42.602;23.482;2022-08-21T06:53:20;92904.13;;;24.93;68.18
11806;BME280;5960;42.602;23.482;2022-08-21T06:55:47;92910.75;;;25.01;67.05
11806;BME280;5960;42.602;23.482;2022-08-21T06:58:15;92908.69;;;25.31;66.67
11806;BME280;5960;42.602;23.482;2022-08-21T07:00:46;92896.94;;;25.41;66.36
11806;BME280;5960;42.602;23.482;2022-08-21T07:03:23;92900.66;;;25.26;65.71
11806;BME280;5960;42.602;23.482;2022-08-21T07:05:50;92903.72;;;25.71;64.43
11806;BME280;5960;42.602;23.482;2022-08-21T07:08:17;92902.56;;;26.05;63.54
11806;BME280;5960;42.602;23.482;2022-08-21T07:10:44;92900.78;;;26.14;63.51
11806;BME280;5960;42.602;23.482;2022-08-21T07:13:11;92899.47;;;26.26;62.58
11806;BME280;5960;42.602;23.482;2022-08-21T07:15:38;92907.13;;;26.05;63.08
11806;BME280;5960;42.602;23.482;2022-08-21T07:18:05;92905.06;;;25.88;64.62
11806;BME280;5960;42.602;23.482;2022-08-21T07:20:33;92899.75;;;25.82;64.01
11806;BME280;5960;42.602;23.482;2022-08-21T07:23:04;92897.34;;;25.67;63.72
11806;BME280;5960;42.602;23.482;2022-08-21T07:25:31;92900.38;;;25.60;64.60
11806;BME280;5960;42.602;23.482;2022-08-21T07:27:58;92893.19;;;25.56;63.57
11806;BME280;5960;42.602;23.482;2022-08-21T07:30:26;92885.41;;;25.54;64.67
11806;BME280;5960;42.602;23.482;2022-08-21T07:32:53;92890.22;;;25.71;65.59
11806;BME280;5960;42.602;23.482;2022-08-21T07:35:20;92883.34;;;25.65;63.82
11806;BME280;5960;42.602;23.482;2022-08-21T07:37:48;92885.94;;;25.84;64.23
11806;BME280;5960;42.602;23.482;2022-08-21T07:40:16;92887.94;;;25.92;63.48
11806;BME280;5960;42.602;23.482;2022-08-21T07:42:47;92887.94;;;25.92;62.80
11806;BME280;5960;42.602;23.482;2022-08-21T07:45:15;92894.75;;;25.90;63.49
11806;BME280;5960;42.602;23.482;2022-08-21T07:47:42;92889.03;;;25.77;62.76
11806;BME280;5960;42.602;23.482;2022-08-21T07:50:10;92884.09;;;25.51;62.89
11806;BME280;5960;42.602;23.482;2022-08-21T07:52:37;92891.53;;;25.41;62.86
11806;BME280;5960;42.602;23.482;2022-08-21T07:55:06;92888.50;;;25.28;62.82
11806;BME280;5960;42.602;23.482;2022-08-21T07:57:33;92889.00;;;24.97;63.51
11806;BME280;5960;42.602;23.482;2022-08-21T08:00:00;92896.94;;;24.88;65.07
11806;BME280;5960;42.602;23.482;2022-08-21T08:02:29;92890.97;;;24.91;66.64
11806;BME280;5960;42.602;23.482;2022-08-21T08:04:58;92887.38;;;24.96;65.46
11806;BME280;5960;42.602;23.482;2022-08-21T08:07:26;92887.06;;;25.17;64.24
11806;BME280;5960;42.602;23.482;2022-08-21T08:09:52;92887.00;;;25.69;63.92
11806;BME280;5960;42.602;23.482;2022-08-21T08:12:21;92892.88;;;26.46;62.15
11806;BME280;5960;42.602;23.482;2022-08-21T08:14:48;92891.97;;;27.24;59.82
11806;BME280;5960;42.602;23.482;2022-08-21T08:17:14;92892.13;;;27.73;57.25
11806;BME280;5960;42.602;23.482;2022-08-21T08:19:41;92890.03;;;28.02;55.72
11806;BME280;5960;42.602;23.482;2022-08-21T08:22:15;92891.00;;;28.06;55.55
11806;BME280;5960;42.602;23.482;2022-08-21T08:24:44;92897.94;;;27.89;56.96
11806;BME280;5960;42.602;23.482;2022-08-21T08:27:11;92896.56;;;27.69;55.64
11806;BME280;5960;42.602;23.482;2022-08-21T08:29:39;92899.81;;;27.34;56.52
11806;BME280;5960;42.602;23.482;2022-08-21T08:32:06;92905.28;;;27.43;57.90
11806;BME280;5960;42.602;23.482;2022-08-21T08:34:33;92905.75;;;27.59;56.69
11806;BME280;5960;42.602;23.482;2022-08-21T08:37:00;92907.31;;;28.15;56.47
11806;BME280;5960;42.602;23.482;2022-08-21T08:39:28;92902.13;;;28.36;55.23
11806;BME280;5960;42.602;23.482;2022-08-21T08:41:59;92895.72;;;27.91;53.27
11806;BME280;5960;42.602;23.482;2022-08-21T08:44:29;92892.38;;;27.86;54.12
11806;BME280;5960;42.602;23.482;2022-08-21T08:46:58;92893.94;;;27.87;54.97
11806;BME280;5960;42.602;23.482;2022-08-21T08:49:30;92886.41;;;27.75;54.90
11806;BME280;5960;42.602;23.482;2022-08-21T08:52:01;92886.31;;;27.57;56.99
11806;BME280;5960;42.602;23.482;2022-08-21T08:54:31;92886.84;;;27.45;57.02
11806;BME280;5960;42.602;23.482;2022-08-21T08:57:02;92885.81;;;27.32;57.71
11806;BME280;5960;42.602;23.482;2022-08-21T08:59:36;92885.03;;;27.09;56.62
11806;BME280;5960;42.602;23.482;2022-08-21T09:02:07;92885.28;;;26.34;57.42
11806;BME280;5960;42.602;23.482;2022-08-21T09:04:34;92891.16;;;25.80;58.88
11806;BME280;5960;42.602;23.482;2022-08-21T09:07:10;92880.81;;;25.21;60.51
11806;BME280;5960;42.602;23.482;2022-08-21T09:09:53;92881.81;;;24.68;63.00
11806;BME280;5960;42.602;23.482;2022-08-21T09:12:35;92877.16;;;24.16;65.17
11806;BME280;5960;42.602;23.482;2022-08-21T09:15:11;92873.44;;;23.58;67.12
11806;BME280;5960;42.602;23.482;2022-08-21T09:17:55;92873.16;;;23.60;67.51
11806;BME280;5960;42.602;23.482;2022-08-21T09:20:33;92868.97;;;23.49;68.35
11806;BME280;5960;42.602;23.482;2022-08-21T09:23:11;92872.47;;;23.73;67.69
11806;BME280;5960;42.602;23.482;2022-08-21T09:25:56;92874.22;;;23.88;66.23
11806;BME280;5960;42.602;23.482;2022-08-21T09:28:25;92875.03;;;23.84;66.54
11806;BME280;5960;42.602;23.482;2022-08-21T09:30:55;92871.16;;;23.95;66.57
11806;BME280;5960;42.602;23.482;2022-08-21T09:33:24;92866.13;;;24.13;66.74
11806;BME280;5960;42.602;23.482;2022-08-21T09:35:52;92867.63;;;24.43;65.36
11806;BME280;5960;42.602;23.482;2022-08-21T09:38:30;92867.94;;;24.61;65.02
11806;BME280;5960;42.602;23.482;2022-08-21T09:41:01;92868.84;;;24.75;64.49
11806;BME280;5960;42.602;23.482;2022-08-21T09:43:28;92870.31;;;24.87;62.49
11806;BME280;5960;42.602;23.482;2022-08-21T09:46:05;92869.69;;;24.90;62.35
11806;BME280;5960;42.602;23.482;2022-08-21T09:48:42;92872.19;;;24.86;63.83
11806;BME280;5960;42.602;23.482;2022-08-21T09:51:12;92868.84;;;24.94;64.83
11806;BME280;5960;42.602;23.482;2022-08-21T09:53:43;92866.34;;;24.98;63.46
11806;BME280;5960;42.602;23.482;2022-08-21T09:56:33;92869.03;;;24.98;63.39
11806;BME280;5960;42.602;23.482;2022-08-21T09:59:24;92864.06;;;25.05;63.90
11806;BME280;5960;42.602;23.482;2022-08-21T10:01:52;92852.72;;;25.08;64.49
11806;BME280;5960;42.602;23.482;2022-08-21T10:04:28;92855.59;;;25.12;64.95
11806;BME280;5960;42.602;23.482;2022-08-21T10:07:06;92854.44;;;25.18;64.50
11806;BME280;5960;42.602;23.482;2022-08-21T10:09:33;92851.03;;;25.27;63.52
11806;BME280;5960;42.602;23.482;2022-08-21T10:12:22;92847.19;;;25.33;63.74
11806;BME280;5960;42.602;23.482;2022-08-21T10:14:58;92861.59;;;25.42;62.62
11806;BME280;5960;42.602;23.482;2022-08-21T10:17:37;92851.56;;;25.62;62.27
11806;BME280;5960;42.602;23.482;2022-08-21T10:20:16;92853.84;;;25.68;59.98
11806;BME280;5960;42.602;23.482;2022-08-21T10:22:47;92849.88;;;25.66;59.84
11806;BME280;5960;42.602;23.482;2022-08-21T10:25:22;92838.25;;;25.65;62.13
11806;BME280;5960;42.602;23.482;2022-08-21T10:27:56;92845.94;;;25.72;60.74
11806;BME280;5960;42.602;23.482;2022-08-21T10:30:35;92854.28;;;25.76;61.13
11806;BME280;5960;42.602;23.482;2022-08-21T10:33:14;92855.25;;;25.80;60.73
11806;BME280;5960;42.602;23.482;2022-08-21T10:35:52;92846.06;;;25.95;61.14
11806;BME280;5960;42.602;23.482;2022-08-21T10:38:55;92842.09;;;26.20;60.42
11806;BME280;5960;42.602;23.482;2022-08-21T10:41:32;92836.25;;;26.41;60.34
11806;BME280;5960;42.602;23.482;2022-08-21T10:44:12;92837.16;;;26.73;58.56
11806;BME280;5960;42.602;23.482;2022-08-21T10:46:47;92825.91;;;26.94;56.36
11806;BME280;5960;42.602;23.482;2022-08-21T10:49:25;92827.47;;;27.17;56.81
11806;BME280;5960;42.602;23.482;2022-08-21T10:52:15;92827.00;;;27.38;55.43
11806;BME280;5960;42.602;23.482;2022-08-21T10:54:51;92827.69;;;27.84;54.90
11806;BME280;5960;42.602;23.482;2022-08-21T10:57:27;92821.47;;;28.33;53.28
11806;BME280;5960;42.602;23.482;2022-08-21T11:00:00;92808.63;;;28.91;51.72
11806;BME280;5960;42.602;23.482;2022-08-21T11:02:31;92814.00;;;29.18;50.59
11806;BME280;5960;42.602;23.482;2022-08-21T11:05:04;92806.97;;;29.43;48.76
11806;BME280;5960;42.602;23.482;2022-08-21T11:07:36;92801.66;;;29.55;49.00
11806;BME280;5960;42.602;23.482;2022-08-21T11:10:10;92799.00;;;30.24;48.11
11806;BME280;5960;42.602;23.482;2022-08-21T11:12:41;92792.13;;;30.69;47.69
11806;BME280;5960;42.602;23.482;2022-08-21T11:15:26;92795.03;;;30.43;47.96
11806;BME280;5960;42.602;23.482;2022-08-21T11:17:59;92790.25;;;30.40;48.19
11806;BME280;5960;42.602;23.482;2022-08-21T11:20:34;92795.31;;;30.92;47.42
11806;BME280;5960;42.602;23.482;2022-08-21T11:23:10;92790.47;;;31.32;45.08
11806;BME280;5960;42.602;23.482;2022-08-21T11:25:44;92782.50;;;31.14;44.86
11806;BME280;5960;42.602;23.482;2022-08-21T11:28:18;92785.03;;;30.98;46.64
11806;BME280;5960;42.602;23.482;2022-08-21T11:30:58;92788.69;;;30.81;46.51
11806;BME280;5960;42.602;23.482;2022-08-21T11:33:49;92777.69;;;30.56;48.21
11806;BME280;5960;42.602;23.482;2022-08-21T11:36:29;92773.88;;;30.48;47.72
11806;BME280;5960;42.602;23.482;2022-08-21T11:39:07;92770.63;;;30.34;47.75
11806;BME280;5960;42.602;23.482;2022-08-21T11:41:43;92776.59;;;30.27;48.28
11806;BME280;5960;42.602;23.482;2022-08-21T11:44:18;92773.81;;;30.36;48.50
11806;BME280;5960;42.602;23.482;2022-08-21T11:46:54;92770.38;;;30.48;48.05
11806;BME280;5960;42.602;23.482;2022-08-21T11:49:33;92782.09;;;30.40;48.60
11806;BME280;5960;42.602;23.482;2022-08-21T11:52:10;92780.28;;;30.23;48.77
11806;BME280;5960;42.602;23.482;2022-08-21T11:54:43;92768.34;;;30.15;49.11
11806;BME280;5960;42.602;23.482;2022-08-21T11:57:18;92768.13;;;29.90;50.44
11806;BME280;5960;42.602;23.482;2022-08-21T11:59:51;92760.94;;;29.55;50.08
11806;BME280;5960;42.602;23.482;2022-08-21T12:02:21;92757.19;;;29.30;51.62
11806;BME280;5960;42.602;23.482;2022-08-21T12:04:52;92755.03;;;28.97;52.70
11806;BME280;5960;42.602;23.482;2022-08-21T12:07:31;92763.00;;;28.67;52.58
11806;BME280;5960;42.602;23.482;2022-08-21T12:10:01;92767.00;;;28.43;54.14
11806;BME280;5960;42.602;23.482;2022-08-21T12:12:31;92760.75;;;28.16;53.94
11806;BME280;5960;42.602;23.482;2022-08-21T12:15:15;92766.69;;;27.78;55.62
11806;BME280;5960;42.602;23.482;2022-08-21T12:17:53;92765.38;;;27.67;55.96
11806;BME280;5960;42.602;23.482;2022-08-21T12:20:33;92769.47;;;27.55;56.72
11806;BME280;5960;42.602;23.482;2022-08-21T12:23:05;92777.47;;;27.38;56.86
11806;BME280;5960;42.602;23.482;2022-08-21T12:25:39;92778.88;;;27.26;57.16
11806;BME280;5960;42.602;23.482;2022-08-21T12:28:08;92777.66;;;26.87;57.51
11806;BME280;5960;42.602;23.482;2022-08-21T12:30:38;92774.50;;;25.83;60.92
11806;BME280;5960;42.602;23.482;2022-08-21T12:33:18;92788.91;;;25.51;62.26
11806;BME280;5960;42.602;23.482;2022-08-21T12:35:47;92789.47;;;24.68;63.71
11806;BME280;5960;42.602;23.482;2022-08-21T12:38:18;92786.06;;;24.04;66.00
11806;BME280;5960;42.602;23.482;2022-08-21T12:40:52;92783.84;;;23.63;67.95
11806;BME280;5960;42.602;23.482;2022-08-21T12:43:34;92776.53;;;23.44;68.71
11806;BME280;5960;42.602;23.482;2022-08-21T12:46:02;92764.75;;;23.11;69.40
11806;BME280;5960;42.602;23.482;2022-08-21T12:48:33;92768.69;;;22.94;70.19
11806;BME280;5960;42.602;23.482;2022-08-21T12:51:08;92764.28;;;22.74;71.64
11806;BME280;5960;42.602;23.482;2022-08-21T12:53:44;92762.31;;;22.85;71.85
11806;BME280;5960;42.602;23.482;2022-08-21T12:56:17;92758.34;;;22.77;72.39
11806;BME280;5960;42.602;23.482;2022-08-21T12:58:47;92758.44;;;22.67;72.99
11806;BME280;5960;42.602;23.482;2022-08-21T13:01:19;92750.19;;;22.58;72.96
11806;BME280;5960;42.602;23.482;2022-08-21T13:03:49;92748.69;;;22.36;73.57
11806;BME280;5960;42.602;23.482;2022-08-21T13:06:18;92747.41;;;22.34;73.97
11806;BME280;5960;42.602;23.482;2022-08-21T13:08:56;92749.13;;;22.19;74.64
11806;BME280;5960;42.602;23.482;2022-08-21T13:11:25;92746.66;;;22.23;74.67
11806;BME280;5960;42.602;23.482;2022-08-21T13:13:53;92755.69;;;22.43;74.03
11806;BME280;5960;42.602;23.482;2022-08-21T13:16:24;92754.34;;;22.40;74.84